Hua Heng 167 — BIAK3 — position and weather

sailwx.info

Track history (hours):
 
Tides and Currents Weather Stations Pressure Air Temp Water Temp Dewpoint Dewpoint Depression Visibility Wind Speed Wind Dir Waves Ship Positions

Hua Heng 167

Last reported at 2015-Aug-19 17:33 UTC. Time now 2015-Aug-31 02:35 UTC.
Position N 01°16' E 104°02'.
Warning: this ship's position is 11 days out of date.

Length 189 m; draft 7.3 m.

Type: Cargo ship. MMSI: 413376470.

Date/timePositionNaut miles runAvg speedWind from/ knotsBaromVisibWave heightAir tempDewpointWater temp
2015-Aug-19 17:33N 01°16' E 104°02'3 2.9
2015-Aug-19 16:26N 01°17' E 103°59'0 0.0
2015-Aug-19 15:26N 01°17' E 103°59'0 0.0
2015-Aug-19 12:23N 01°17' E 103°59'0 0.1
2015-Aug-19 11:29N 01°17' E 103°59'0 0.0
2015-Aug-19 10:27N 01°17' E 103°59'0 0.0
2015-Aug-19 09:32N 01°17' E 103°59'0 0.0
2015-Aug-19 08:32N 01°17' E 103°59'0 0.0
2015-Aug-19 06:32N 01°17' E 103°59'0 0.0
2015-Aug-19 05:23N 01°17' E 103°59'0 0.1
2015-Aug-19 04:26N 01°17' E 103°59'0 0.4
2015-Aug-19 03:33N 01°17' E 103°59'4 4.3
2015-Aug-19 02:34N 01°14' E 103°56'2 2.2
2015-Aug-19 01:32N 01°12' E 103°54'4 4.1
2015-Aug-19 00:30N 01°11' E 103°51'17611.8
2015-Aug-18 09:33N 02°38' E 101°18'2512.5
2015-Aug-18 07:33N 02°51' E 100°56'  
Track history (hours):
 
Tides and Currents Weather Stations Pressure Air Temp Water Temp Dewpoint Dewpoint Depression Visibility Wind Speed Wind Dir Waves Ship Positions

Hua Heng 167

Last reported at 2015-Aug-19 17:33 UTC. Time now 2015-Aug-31 02:35 UTC.
Position N 01°16' E 104°02'.
Warning: this ship's position is 11 days out of date.

Length 189 m; draft 7.3 m.

Type: Cargo ship. MMSI: 413376470.

Date/timePositionNaut miles runAvg speedWind from/ knotsBaromVisibWave heightAir tempDewpointWater temp
2015-Aug-19 17:33N 01°16' E 104°02'3 2.9
2015-Aug-19 16:26N 01°17' E 103°59'0 0.0
2015-Aug-19 15:26N 01°17' E 103°59'0 0.0
2015-Aug-19 12:23N 01°17' E 103°59'0 0.1
2015-Aug-19 11:29N 01°17' E 103°59'0 0.0
2015-Aug-19 10:27N 01°17' E 103°59'0 0.0
2015-Aug-19 09:32N 01°17' E 103°59'0 0.0
2015-Aug-19 08:32N 01°17' E 103°59'0 0.0
2015-Aug-19 06:32N 01°17' E 103°59'0 0.0
2015-Aug-19 05:23N 01°17' E 103°59'0 0.1
2015-Aug-19 04:26N 01°17' E 103°59'0 0.4
2015-Aug-19 03:33N 01°17' E 103°59'4 4.3
2015-Aug-19 02:34N 01°14' E 103°56'2 2.2
2015-Aug-19 01:32N 01°12' E 103°54'4 4.1
2015-Aug-19 00:30N 01°11' E 103°51'17611.8
2015-Aug-18 09:33N 02°38' E 101°18'2512.5
2015-Aug-18 07:33N 02°51' E 100°56'  

Dump ship's entire track history